Time;durP1;ratioP1;P1;durP2;ratioP2;P2;SDS_P1;SDS_P2;PMS_P1;PMS_P2;Temp;Humidity;BMP_temperature;BMP_pressure;BME280_temperature;BME280_humidity;BME280_pressure;Samples;Min_cycle;Max_cycle;Signal;HPM_P1;HPM_P2
2023/10/19 00:00:22;;;;;;;5.00;4.50;;;15.20;65.20;16.90;99102.00;;;;5041430;28;20196;-77
2023/10/19 00:02:54;;;;;;;4.10;3.65;;;15.20;65.20;16.90;99095.00;;;;5044742;28;20246;-76
2023/10/19 00:05:21;;;;;;;4.00;3.60;;;15.20;65.20;16.90;99095.00;;;;5029226;28;20196;-76
2023/10/19 00:07:49;;;;;;;4.72;4.00;;;15.20;65.10;16.90;99094.00;;;;5029391;28;20250;-77
2023/10/19 00:10:17;;;;;;;4.65;3.88;;;15.30;65.30;17.00;99088.00;;;;5029067;28;20216;-77
2023/10/19 00:12:44;;;;;;;4.40;3.75;;;15.30;65.20;17.00;99082.00;;;;5043576;28;20196;-76
2023/10/19 00:15:14;;;;;;;4.65;4.18;;;15.30;65.20;17.00;99086.00;;;;5048296;28;20204;-77
2023/10/19 00:17:44;;;;;;;5.88;4.85;;;15.30;65.20;17.00;99089.00;;;;5033349;28;20236;-77
2023/10/19 00:22:55;;;;;;;5.05;4.30;;;15.40;65.30;17.10;99086.00;;;;5028516;28;20662;-77
2023/10/19 00:25:24;;;;;;;4.93;4.43;;;15.40;65.40;17.10;99086.00;;;;5028914;28;20294;-77
2023/10/19 00:27:52;;;;;;;4.90;4.13;;;15.40;65.40;17.10;99077.00;;;;5036508;28;20200;-76
2023/10/19 00:30:23;;;;;;;5.15;4.65;;;15.40;65.40;17.20;99081.00;;;;5048378;28;20320;-77
2023/10/19 00:32:52;;;;;;;5.88;4.80;;;15.40;65.50;17.20;99080.00;;;;5042533;28;20205;-77
2023/10/19 00:35:28;;;;;;;5.03;4.53;;;15.50;65.60;17.20;99076.00;;;;5045325;28;20196;-77
2023/10/19 00:38:21;;;;;;;6.15;4.85;;;15.50;66.20;17.20;99080.00;;;;5028818;28;20211;-77
2023/10/19 00:40:52;;;;;;;5.25;4.00;;;15.60;65.80;17.20;99079.00;;;;5027427;28;20197;-76
2023/10/19 00:43:32;;;;;;;4.90;4.40;;;15.60;65.60;17.20;99082.00;;;;5033460;28;20219;-78
2023/10/19 00:46:01;;;;;;;5.03;4.50;;;15.60;65.80;17.30;99082.00;;;;5044326;28;20204;-77
2023/10/19 00:48:29;;;;;;;5.32;4.82;;;15.60;65.60;17.30;99075.00;;;;5048166;28;20579;-76
2023/10/19 00:51:06;;;;;;;6.30;5.47;;;15.60;65.70;17.30;99068.00;;;;5046688;28;20234;-76
2023/10/19 00:53:39;;;;;;;5.72;4.68;;;15.60;65.80;17.30;99075.00;;;;5047887;28;20203;-77
2023/10/19 00:56:09;;;;;;;5.65;4.82;;;15.70;66.00;17.40;99070.00;;;;5047871;28;20198;-76
2023/10/19 00:58:39;;;;;;;6.05;5.00;;;15.70;65.90;17.40;99071.00;;;;5032026;28;20287;-77
2023/10/19 01:01:06;;;;;;;6.28;5.53;;;15.70;66.00;17.40;99069.00;;;;5044966;28;20195;-77
2023/10/19 01:03:37;;;;;;;6.60;5.25;;;15.80;66.00;17.50;99064.00;;;;5047233;28;20206;-77
2023/10/19 01:06:13;;;;;;;6.85;5.20;;;15.80;66.00;17.50;99065.00;;;;5034924;28;20202;-77
2023/10/19 01:08:45;;;;;;;6.22;5.50;;;15.80;66.10;17.50;99061.00;;;;5041546;28;20199;-77
2023/10/19 01:11:15;;;;;;;6.10;5.50;;;15.90;66.20;17.50;99060.00;;;;5048498;28;20625;-76
2023/10/19 01:13:46;;;;;;;7.03;6.20;;;15.90;66.20;17.60;99059.00;;;;5047917;28;20227;-77
2023/10/19 01:16:20;;;;;;;5.93;5.32;;;15.90;66.20;17.60;99066.00;;;;5048009;28;20195;-77
2023/10/19 01:18:53;;;;;;;6.18;5.35;;;15.90;66.20;17.60;99061.00;;;;5029837;28;20767;-77
2023/10/19 01:21:27;;;;;;;5.82;5.30;;;16.00;66.90;17.70;99062.00;;;;5043107;28;20279;-77
2023/10/19 01:23:56;;;;;;;7.13;6.18;;;16.00;66.20;17.70;99060.00;;;;5047835;28;20206;-76
2023/10/19 01:26:25;;;;;;;7.65;5.78;;;16.00;66.20;17.70;99052.00;;;;5028771;28;20642;-76
2023/10/19 01:28:58;;;;;;;5.82;5.22;;;16.00;66.20;17.70;99048.00;;;;5033954;28;20278;-76
2023/10/19 01:31:31;;;;;;;6.13;5.28;;;16.00;66.20;17.80;99052.00;;;;5028105;28;20192;-76
2023/10/19 01:34:05;;;;;;;7.50;5.75;;;16.10;66.30;17.80;99047.00;;;;5044348;28;20200;-76
2023/10/19 01:36:37;;;;;;;6.50;5.82;;;16.10;66.30;17.80;99051.00;;;;5043126;28;20268;-77
2023/10/19 01:39:09;;;;;;;6.40;5.38;;;16.10;66.30;17.80;99044.00;;;;5044477;28;20196;-76
2023/10/19 01:41:36;;;;;;;7.15;5.57;;;16.20;66.40;17.90;99042.00;;;;5032962;28;20281;-77
2023/10/19 01:44:04;;;;;;;6.22;5.43;;;16.20;66.40;17.90;99044.00;;;;5048187;28;20188;-77
2023/10/19 01:46:33;;;;;;;5.38;4.88;;;16.20;67.20;17.90;99052.00;;;;5046937;28;20703;-77
2023/10/19 01:49:02;;;;;;;6.85;5.38;;;16.20;66.50;17.90;99035.00;;;;5047525;28;20243;-77
2023/10/19 01:51:32;;;;;;;6.43;5.40;;;16.30;66.60;17.90;99050.00;;;;5047753;28;20311;-77
2023/10/19 01:54:00;;;;;;;5.72;5.07;;;16.30;66.60;18.00;99033.00;;;;5047249;28;20297;-77
2023/10/19 01:56:29;;;;;;;5.95;5.35;;;16.30;66.60;18.00;99037.00;;;;5050706;28;20211;-77
2023/10/19 01:58:57;;;;;;;7.03;4.97;;;16.30;66.70;18.10;99039.00;;;;5038868;28;20204;-77
2023/10/19 02:01:29;;;;;;;6.72;6.00;;;16.40;66.80;18.10;99029.00;;;;5035579;28;20200;-77
2023/10/19 02:03:58;;;;;;;7.07;4.88;;;16.40;66.80;18.10;99038.00;;;;5032263;28;20196;-77
2023/10/19 02:06:27;;;;;;;6.80;5.30;;;16.40;66.80;18.10;99034.00;;;;5032184;28;20231;-77
2023/10/19 02:08:59;;;;;;;5.85;5.18;;;16.50;67.00;18.20;99031.00;;;;5050142;28;20196;-77
2023/10/19 02:11:29;;;;;;;6.00;5.05;;;16.50;67.00;18.20;99031.00;;;;5049142;28;20322;-77
2023/10/19 02:13:59;;;;;;;6.00;4.68;;;16.50;67.10;18.20;99027.00;;;;5051472;28;20249;-77
2023/10/19 02:16:29;;;;;;;5.72;4.68;;;16.50;67.10;18.30;99032.00;;;;5039189;28;20206;-77
2023/10/19 02:18:56;;;;;;;4.38;3.97;;;16.60;67.20;18.30;99024.00;;;;5035837;28;20231;-77
2023/10/19 02:21:27;;;;;;;4.82;4.43;;;16.60;67.20;18.40;99017.00;;;;5039260;28;20230;-77
2023/10/19 02:23:53;;;;;;;7.80;4.43;;;16.60;67.20;18.40;99029.00;;;;5044585;28;20586;-77
2023/10/19 02:26:22;;;;;;;8.25;5.00;;;16.70;67.20;18.40;99027.00;;;;5031160;28;20192;-77
2023/10/19 02:28:50;;;;;;;5.38;4.88;;;16.70;67.20;18.50;99025.00;;;;5040020;28;20223;-77
2023/10/19 02:31:21;;;;;;;4.78;4.28;;;16.80;67.20;18.50;99017.00;;;;5044527;28;20227;-77
2023/10/19 02:33:51;;;;;;;5.18;4.68;;;16.80;67.30;18.50;99030.00;;;;5035309;28;20659;-77
2023/10/19 02:36:20;;;;;;;5.05;4.43;;;16.80;67.30;18.60;99027.00;;;;5034786;28;21102;-77
2023/10/19 02:38:48;;;;;;;5.85;4.30;;;16.90;67.40;18.60;99017.00;;;;5040294;28;20285;-77
2023/10/19 02:41:17;;;;;;;5.97;4.35;;;16.90;67.40;18.60;99019.00;;;;5045854;28;20558;-77
2023/10/19 02:43:46;;;;;;;4.50;3.25;;;16.90;67.50;18.60;99008.00;;;;5051249;28;20211;-77
2023/10/19 02:46:17;;;;;;;4.22;3.83;;;17.00;67.60;18.70;99018.00;;;;5049875;28;20311;-77
2023/10/19 02:48:44;;;;;;;4.25;3.58;;;17.00;67.60;18.70;99022.00;;;;5048128;28;20207;-77
2023/10/19 02:51:12;;;;;;;4.95;3.90;;;17.00;67.60;18.70;99019.00;;;;5032196;28;20238;-77
2023/10/19 02:53:39;;;;;;;4.20;3.60;;;17.10;67.50;18.80;99028.00;;;;5039411;28;20298;-77
2023/10/19 02:56:14;;;;;;;4.53;3.72;;;17.10;67.60;18.80;99019.00;;;;5036950;28;20542;-77
2023/10/19 02:58:43;;;;;;;4.47;3.30;;;17.10;67.70;18.80;99020.00;;;;5036832;28;20501;-77
2023/10/19 03:01:22;;;;;;;3.60;3.17;;;17.20;67.50;18.80;99018.00;;;;5050629;28;20206;-77
2023/10/19 03:03:50;;;;;;;4.78;4.28;;;17.20;67.70;18.90;99019.00;;;;5049705;28;20649;-77
2023/10/19 03:06:21;;;;;;;5.78;3.67;;;17.20;67.40;18.90;99018.00;;;;5047407;28;20212;-77
2023/10/19 03:08:47;;;;;;;4.05;3.60;;;17.20;68.20;19.00;99014.00;;;;5040101;28;20734;-77
2023/10/19 03:11:16;;;;;;;3.45;3.10;;;17.30;67.50;19.00;99013.00;;;;5050930;28;20227;-77
2023/10/19 03:13:43;;;;;;;4.45;3.45;;;17.30;67.50;19.00;99014.00;;;;5037866;28;20212;-77
2023/10/19 03:16:11;;;;;;;4.72;3.58;;;17.30;67.50;19.00;99004.00;;;;5039342;28;20198;-77
2023/10/19 03:18:38;;;;;;;3.55;3.08;;;17.30;67.50;19.00;99012.00;;;;5041591;28;21150;-77
2023/10/19 03:21:06;;;;;;;3.38;2.90;;;17.40;67.60;19.10;99007.00;;;;5048479;28;20192;-77
2023/10/19 03:23:34;;;;;;;3.30;3.00;;;17.40;67.70;19.10;99004.00;;;;5042403;28;20616;-77
2023/10/19 03:28:54;;;;;;;3.45;2.75;;;17.40;67.70;19.20;98998.00;;;;5038396;28;20198;-77
2023/10/19 03:31:22;;;;;;;3.90;2.97;;;17.40;67.60;19.20;99000.00;;;;5040999;28;20234;-77
2023/10/19 03:33:54;;;;;;;3.47;3.03;;;17.50;67.60;19.20;98986.00;;;;5044324;28;20202;-77
2023/10/19 03:36:22;;;;;;;3.20;2.45;;;17.50;67.70;19.20;98992.00;;;;5039790;28;20735;-77
2023/10/19 03:38:51;;;;;;;5.88;3.50;;;17.50;67.60;19.20;98990.00;;;;5039928;28;20192;-77
2023/10/19 03:41:21;;;;;;;2.63;2.42;;;17.50;67.70;19.20;98987.00;;;;5041021;28;20287;-77
2023/10/19 03:43:51;;;;;;;4.28;2.75;;;17.60;67.80;19.30;98985.00;;;;5029669;28;20852;-77
2023/10/19 03:46:24;;;;;;;4.20;2.60;;;17.60;67.90;19.30;98985.00;;;;5029107;28;20193;-77
2023/10/19 03:48:52;;;;;;;5.45;2.72;;;17.60;67.90;19.30;98979.00;;;;5037199;28;20203;-77
2023/10/19 03:51:24;;;;;;;5.15;2.35;;;17.60;68.60;19.30;98988.00;;;;5049553;28;20253;-77
2023/10/19 03:53:54;;;;;;;4.50;2.35;;;17.70;67.90;19.40;98984.00;;;;5047101;28;20195;-77
2023/10/19 03:56:23;;;;;;;2.95;2.00;;;17.70;67.90;19.40;98981.00;;;;5029124;28;20196;-77
2023/10/19 03:58:51;;;;;;;4.20;2.33;;;17.70;67.90;19.40;98976.00;;;;5036601;28;20250;-77
2023/10/19 04:01:19;;;;;;;2.30;2.08;;;17.70;67.90;19.40;98971.00;;;;5049467;28;20262;-77
2023/10/19 04:03:47;;;;;;;3.00;2.25;;;17.70;67.80;19.40;98976.00;;;;5048787;28;20680;-77
2023/10/19 04:06:15;;;;;;;2.13;1.92;;;17.80;67.90;19.40;98974.00;;;;5049242;28;20199;-77
2023/10/19 04:08:45;;;;;;;4.07;1.88;;;17.80;67.90;19.40;98976.00;;;;5043735;28;20202;-77
2023/10/19 04:11:21;;;;;;;2.25;1.63;;;17.80;68.00;19.50;98973.00;;;;5065101;28;20214;-77
2023/10/19 04:13:53;;;;;;;1.58;1.23;;;17.80;68.00;19.50;98974.00;;;;5031513;28;20285;-77
2023/10/19 04:16:21;;;;;;;1.88;1.17;;;17.80;68.10;19.50;98968.00;;;;5028911;28;20199;-77
2023/10/19 04:18:49;;;;;;;2.22;1.35;;;17.80;68.10;19.50;98971.00;;;;5047808;28;20231;-77
2023/10/19 04:21:17;;;;;;;3.95;1.08;;;17.90;68.20;19.50;98963.00;;;;5048544;28;20199;-77
2023/10/19 04:23:46;;;;;;;1.63;0.75;;;17.90;68.20;19.50;98961.00;;;;5035400;28;20192;-77
2023/10/19 04:26:14;;;;;;;1.25;0.70;;;17.90;68.20;19.50;98955.00;;;;5034925;28;20203;-78
2023/10/19 04:28:51;;;;;;;2.03;0.70;;;17.90;68.10;19.50;98968.00;;;;5030456;28;20204;-78
2023/10/19 04:31:19;;;;;;;0.80;0.63;;;17.90;67.90;19.50;98970.00;;;;5033281;28;20220;-77
2023/10/19 04:33:47;;;;;;;0.75;0.55;;;17.90;67.90;19.50;98972.00;;;;5028478;28;20223;-77
2023/10/19 04:36:19;;;;;;;2.65;0.70;;;17.90;67.80;19.50;98975.00;;;;5028615;28;20693;-77
2023/10/19 04:38:47;;;;;;;1.55;0.70;;;17.90;67.70;19.50;98978.00;;;;5042122;28;20733;-77
2023/10/19 04:41:15;;;;;;;1.88;0.50;;;17.90;67.50;19.50;98970.00;;;;5032986;28;20576;-77
2023/10/19 04:43:47;;;;;;;1.05;0.43;;;17.90;67.50;19.50;98978.00;;;;5031668;28;20240;-78
2023/10/19 04:46:18;;;;;;;2.92;0.43;;;17.90;67.40;19.50;98983.00;;;;5045704;28;20554;-77
2023/10/19 04:48:45;;;;;;;1.75;0.60;;;17.90;67.40;19.50;98976.00;;;;5033601;28;20203;-77
2023/10/19 04:51:12;;;;;;;2.45;0.60;;;17.90;67.30;19.50;98975.00;;;;5043993;28;20224;-78
2023/10/19 04:53:42;;;;;;;2.17;0.40;;;17.80;67.30;19.50;98979.00;;;;5046465;28;20561;-77
2023/10/19 04:56:09;;;;;;;1.52;0.47;;;17.80;67.30;19.50;98983.00;;;;5046767;28;20200;-78
2023/10/19 04:58:37;;;;;;;1.67;0.47;;;17.80;67.40;19.50;98975.00;;;;5047716;28;20665;-78
2023/10/19 05:01:05;;;;;;;1.00;0.40;;;17.80;67.40;19.50;98986.00;;;;5044696;28;20210;-78
2023/10/19 05:03:32;;;;;;;2.67;0.60;;;17.80;67.40;19.50;98980.00;;;;5037943;28;20519;-78
2023/10/19 05:05:59;;;;;;;1.50;0.40;;;17.80;67.50;19.50;98993.00;;;;5040600;28;20202;-77
2023/10/19 05:08:27;;;;;;;2.47;1.05;;;17.80;67.50;19.50;98991.00;;;;5034093;28;20199;-78
2023/10/19 05:10:58;;;;;;;2.33;0.70;;;17.80;67.60;19.40;98983.00;;;;5034006;28;20258;-78
2023/10/19 05:13:26;;;;;;;0.55;0.35;;;17.80;67.70;19.50;98993.00;;;;5031285;28;20195;-78
2023/10/19 05:15:54;;;;;;;1.08;0.38;;;17.80;67.70;19.50;98989.00;;;;5046582;28;20203;-78
2023/10/19 05:18:22;;;;;;;0.70;0.40;;;17.80;67.70;19.50;98997.00;;;;5046491;28;20243;-78
2023/10/19 05:20:55;;;;;;;0.60;0.20;;;17.80;67.80;19.50;99005.00;;;;5048187;28;20199;-77
2023/10/19 05:23:23;;;;;;;2.15;0.40;;;17.80;67.80;19.50;99003.00;;;;5041932;28;20195;-78
2023/10/19 05:25:52;;;;;;;1.05;0.70;;;17.80;67.80;19.50;98998.00;;;;5035498;28;20671;-77
2023/10/19 05:28:21;;;;;;;1.23;0.55;;;17.80;67.80;19.50;99002.00;;;;5029753;28;20200;-77
2023/10/19 05:30:49;;;;;;;1.58;0.50;;;17.90;68.00;19.50;99004.00;;;;5046119;28;20324;-77
2023/10/19 05:33:20;;;;;;;0.90;0.45;;;17.90;68.70;19.50;99005.00;;;;5031662;28;20187;-77
2023/10/19 05:35:47;;;;;;;0.98;0.40;;;17.90;68.00;19.60;99001.00;;;;5047234;28;20587;-77
2023/10/19 05:38:15;;;;;;;0.77;0.30;;;17.90;68.00;19.60;99006.00;;;;5039522;28;20688;-77
2023/10/19 05:40:43;;;;;;;1.63;0.55;;;17.90;68.00;19.60;99011.00;;;;5041180;28;20301;-77
2023/10/19 05:43:10;;;;;;;1.65;0.60;;;17.90;68.00;19.60;99012.00;;;;5039835;28;20223;-78
2023/10/19 05:45:38;;;;;;;0.85;0.50;;;17.90;68.10;19.60;99015.00;;;;5041393;28;20188;-78
2023/10/19 05:48:07;;;;;;;2.15;0.68;;;18.00;68.10;19.60;99014.00;;;;5046877;28;20191;-78
2023/10/19 05:50:34;;;;;;;2.83;0.40;;;18.00;68.10;19.70;99025.00;;;;5042894;28;20249;-75
2023/10/19 05:53:01;;;;;;;2.55;0.60;;;18.00;68.10;19.70;99019.00;;;;5040813;28;20203;-76
2023/10/19 05:55:29;;;;;;;2.42;0.73;;;18.00;68.10;19.70;99014.00;;;;5044262;28;20245;-76
2023/10/19 05:57:56;;;;;;;2.42;0.50;;;18.00;68.10;19.70;99017.00;;;;5045427;28;20235;-75
2023/10/19 06:00:25;;;;;;;0.47;0.35;;;18.00;68.00;19.70;99024.00;;;;5041013;28;20195;-75
2023/10/19 06:02:54;;;;;;;2.47;0.85;;;18.00;68.00;19.70;99020.00;;;;5037392;28;20513;-76
2023/10/19 06:05:21;;;;;;;1.27;0.47;;;17.90;69.70;19.80;99022.00;;;;5043930;28;20214;-76
2023/10/19 06:07:50;;;;;;;1.40;0.68;;;18.00;70.20;19.80;99028.00;;;;5044398;28;20448;-76
2023/10/19 06:10:22;;;;;;;1.52;0.80;;;18.00;69.40;19.80;99024.00;;;;5044236;28;20295;-76
2023/10/19 06:12:52;;;;;;;0.95;0.50;;;18.00;69.20;19.80;99015.00;;;;5045736;28;20275;-76
2023/10/19 06:15:23;;;;;;;2.47;0.52;;;18.10;68.90;19.90;99014.00;;;;5034788;28;20210;-76
2023/10/19 06:17:51;;;;;;;3.08;0.70;;;18.20;68.70;19.90;99019.00;;;;5038374;28;20635;-76
2023/10/19 06:20:26;;;;;;;1.30;0.40;;;18.20;68.50;19.90;99022.00;;;;5037466;28;20702;-76
2023/10/19 06:22:55;;;;;;;1.60;0.50;;;18.20;68.30;19.90;99021.00;;;;5041743;28;20304;-76
2023/10/19 06:25:25;;;;;;;1.33;0.60;;;18.20;68.30;19.90;99019.00;;;;5039664;28;20215;-77
2023/10/19 06:27:56;;;;;;;3.42;0.70;;;18.20;68.10;19.90;99026.00;;;;5034215;28;20196;-77
2023/10/19 06:30:24;;;;;;;8.70;0.70;;;18.20;68.10;19.90;99032.00;;;;5035685;28;20246;-77
2023/10/19 06:32:54;;;;;;;0.82;0.30;;;18.20;68.10;19.90;99028.00;;;;5043486;28;20206;-77
2023/10/19 06:35:23;;;;;;;0.95;0.43;;;18.20;68.10;19.90;99024.00;;;;5044316;28;20202;-77
2023/10/19 06:37:50;;;;;;;1.85;0.50;;;18.20;68.10;19.90;99030.00;;;;5043194;28;20658;-76
2023/10/19 06:40:18;;;;;;;1.52;0.63;;;18.20;68.00;19.90;99036.00;;;;5047526;28;20204;-77
2023/10/19 06:42:46;;;;;;;1.20;0.63;;;18.20;68.00;19.90;99036.00;;;;5043466;28;20299;-77
2023/10/19 06:45:14;;;;;;;2.75;0.80;;;18.20;68.00;19.90;99030.00;;;;5046777;28;20226;-76
2023/10/19 06:47:44;;;;;;;2.15;0.60;;;18.20;68.00;19.90;99039.00;;;;5048998;28;20218;-76
2023/10/19 06:50:12;;;;;;;2.45;0.80;;;18.20;68.00;19.90;99041.00;;;;5044875;28;20200;-76
2023/10/19 06:52:42;;;;;;;1.77;0.90;;;18.20;68.00;19.90;99058.00;;;;5039318;28;20234;-77
2023/10/19 06:55:13;;;;;;;1.98;1.00;;;18.20;68.00;19.90;99050.00;;;;5044998;28;20230;-77
2023/10/19 06:57:43;;;;;;;2.45;0.88;;;18.20;68.10;19.80;99063.00;;;;5044796;28;20278;-76
2023/10/19 07:00:14;;;;;;;1.33;0.50;;;18.20;68.10;19.90;99050.00;;;;5047296;28;20200;-76
2023/10/19 07:02:42;;;;;;;2.90;0.88;;;18.20;68.20;19.90;99064.00;;;;5043784;28;20719;-77
2023/10/19 07:05:11;;;;;;;4.00;3.15;;;18.20;68.30;19.90;99064.00;;;;5041406;28;20269;-77
2023/10/19 07:07:41;;;;;;;4.72;2.30;;;18.20;68.20;19.80;99065.00;;;;5039477;28;20221;-77
2023/10/19 07:10:12;;;;;;;3.85;2.15;;;18.20;68.30;19.90;99067.00;;;;5036405;28;20203;-76
2023/10/19 07:12:41;;;;;;;3.40;1.73;;;18.20;68.30;19.90;99066.00;;;;5033739;28;20223;-77
2023/10/19 07:15:13;;;;;;;2.88;1.60;;;18.20;68.30;19.90;99067.00;;;;5037483;28;20196;-77
2023/10/19 07:17:41;;;;;;;3.25;1.02;;;18.20;68.30;19.90;99077.00;;;;5035239;28;20223;-77
2023/10/19 07:20:21;;;;;;;1.27;0.70;;;18.20;68.40;19.90;99066.00;;;;5032583;28;20228;-76
2023/10/19 07:22:50;;;;;;;2.15;0.70;;;18.20;68.40;20.00;99072.00;;;;5033662;28;20215;-77
2023/10/19 07:25:20;;;;;;;3.35;0.70;;;18.30;68.50;20.00;99077.00;;;;5033706;28;20195;-77
2023/10/19 07:27:47;;;;;;;3.67;0.88;;;18.30;68.50;20.00;99082.00;;;;5036034;28;20709;-76
2023/10/19 07:30:20;;;;;;;1.33;0.80;;;18.30;68.50;20.00;99084.00;;;;5036642;28;20208;-76
2023/10/19 07:32:51;;;;;;;2.92;1.08;;;18.30;68.60;20.00;99083.00;;;;5033351;28;20234;-77
2023/10/19 07:35:19;;;;;;;1.85;0.50;;;18.30;68.60;20.00;99076.00;;;;5032793;28;20238;-77
2023/10/19 07:37:48;;;;;;;2.30;0.90;;;18.40;68.60;20.10;99076.00;;;;5034335;28;20253;-76
2023/10/19 07:40:17;;;;;;;2.10;0.88;;;18.30;68.70;20.10;99085.00;;;;5035501;28;20236;-77
2023/10/19 07:42:45;;;;;;;4.68;0.75;;;18.40;68.80;20.10;99085.00;;;;5034334;28;20217;-76
2023/10/19 07:45:12;;;;;;;4.40;0.55;;;18.40;68.80;20.10;99085.00;;;;5037791;28;20207;-77
2023/10/19 07:47:41;;;;;;;3.67;0.80;;;18.40;68.70;20.20;99086.00;;;;5034024;28;20197;-76
2023/10/19 07:50:12;;;;;;;1.95;0.82;;;18.40;68.80;20.20;99083.00;;;;5029904;28;20668;-76
2023/10/19 07:52:39;;;;;;;1.75;0.70;;;18.50;68.80;20.20;99087.00;;;;5032913;28;20234;-76
2023/10/19 07:55:08;;;;;;;2.85;0.73;;;18.50;68.80;20.20;99089.00;;;;5032365;28;20203;-76
2023/10/19 07:57:36;;;;;;;2.03;0.85;;;18.50;68.80;20.20;99081.00;;;;5036794;28;20196;-76
2023/10/19 08:00:05;;;;;;;4.07;0.73;;;18.50;68.80;20.20;99087.00;;;;5036408;28;20238;-76
2023/10/19 08:02:34;;;;;;;1.25;0.52;;;18.50;68.70;20.30;99078.00;;;;5034644;28;20197;-76
2023/10/19 08:05:02;;;;;;;2.85;0.70;;;18.60;68.80;20.30;99077.00;;;;5030265;28;20200;-77
2023/10/19 08:07:30;;;;;;;5.00;1.05;;;18.60;68.80;20.30;99077.00;;;;5033407;28;22249;-78
2023/10/19 08:09:58;;;;;;;0.85;0.60;;;18.60;68.80;20.40;99080.00;;;;5029080;28;20200;-77
2023/10/19 08:12:27;;;;;;;3.00;0.77;;;18.60;68.90;20.40;99070.00;;;;5032811;28;20364;-78
2023/10/19 08:14:56;;;;;;;3.08;0.82;;;18.70;68.90;20.40;99079.00;;;;5033079;28;20195;-78
2023/10/19 08:17:23;;;;;;;0.70;0.40;;;18.70;68.90;20.40;99075.00;;;;5030784;28;20228;-78
2023/10/19 08:19:50;;;;;;;3.22;0.50;;;18.70;68.90;20.50;99078.00;;;;5029859;28;20192;-78
2023/10/19 08:22:17;;;;;;;2.10;0.70;;;18.80;69.00;20.50;99076.00;;;;5034560;28;20594;-78
2023/10/19 08:24:45;;;;;;;1.23;0.80;;;18.80;69.00;20.50;99079.00;;;;5030541;28;20299;-78
2023/10/19 08:27:13;;;;;;;5.57;0.95;;;18.80;69.00;20.60;99080.00;;;;5033544;28;20200;-78
2023/10/19 08:29:40;;;;;;;6.07;0.90;;;18.80;69.00;20.60;99067.00;;;;5034651;28;20196;-79
2023/10/19 08:32:08;;;;;;;2.50;0.77;;;18.90;69.10;20.60;99072.00;;;;5030031;28;20220;-79
2023/10/19 08:34:36;;;;;;;1.25;0.52;;;18.90;69.10;20.60;99071.00;;;;5028902;28;20197;-78
2023/10/19 08:37:04;;;;;;;2.45;0.88;;;18.90;69.00;20.70;99062.00;;;;5029668;28;20670;-78
2023/10/19 08:39:36;;;;;;;2.28;0.80;;;18.90;69.00;20.70;99048.00;;;;5034319;28;20204;-77
2023/10/19 08:42:04;;;;;;;4.25;1.33;;;19.00;69.10;20.80;99059.00;;;;5032047;28;20728;-78
2023/10/19 08:44:31;;;;;;;1.73;0.50;;;19.00;69.10;20.80;99064.00;;;;5038467;28;20212;-78
2023/10/19 08:46:59;;;;;;;1.92;0.40;;;19.00;69.10;20.80;99062.00;;;;5033527;28;20195;-79
2023/10/19 08:49:27;;;;;;;1.67;0.60;;;19.10;69.10;20.80;99060.00;;;;5033053;28;20223;-78
2023/10/19 08:51:56;;;;;;;1.77;0.95;;;19.20;69.30;20.90;99069.00;;;;5029194;28;20718;-78
2023/10/19 08:54:23;;;;;;;4.25;0.82;;;19.10;69.10;20.90;99061.00;;;;5028796;28;20195;-78
2023/10/19 08:56:50;;;;;;;4.13;0.98;;;19.20;69.20;21.00;99068.00;;;;5034694;28;20292;-78
2023/10/19 08:59:17;;;;;;;2.10;1.02;;;19.20;69.10;21.00;99064.00;;;;5031797;28;20198;-78
2023/10/19 09:01:44;;;;;;;8.75;0.93;;;19.30;69.20;21.00;99062.00;;;;5032248;28;20231;-78
2023/10/19 09:04:13;;;;;;;3.00;0.55;;;19.30;69.10;21.10;99064.00;;;;5035508;28;20203;-78
2023/10/19 09:06:42;;;;;;;3.03;0.82;;;19.30;69.20;21.10;99071.00;;;;5031198;28;20214;-78
2023/10/19 09:09:16;;;;;;;2.28;0.80;;;19.40;69.40;21.20;99063.00;;;;5034926;28;20196;-78
2023/10/19 09:11:43;;;;;;;2.72;0.80;;;19.40;69.40;21.30;99058.00;;;;5031449;28;20229;-78
2023/10/19 09:14:12;;;;;;;2.38;0.80;;;19.50;69.50;21.40;99050.00;;;;5031166;28;20207;-78
2023/10/19 09:16:39;;;;;;;4.93;0.95;;;19.60;69.70;21.50;99053.00;;;;5039373;28;20563;-78
2023/10/19 09:19:06;;;;;;;1.95;1.00;;;19.70;69.70;21.50;99056.00;;;;5034013;28;20728;-78
2023/10/19 09:21:35;;;;;;;2.22;0.90;;;19.70;69.60;21.60;99063.00;;;;5032976;28;20654;-78
2023/10/19 09:24:04;;;;;;;1.40;0.77;;;19.80;69.60;21.60;99065.00;;;;5030978;28;20196;-77
2023/10/19 09:26:32;;;;;;;3.47;1.50;;;19.80;69.40;21.70;99070.00;;;;5030785;28;20195;-77
2023/10/19 09:28:59;;;;;;;3.35;1.23;;;19.90;69.30;21.70;99059.00;;;;5031186;28;20192;-76
2023/10/19 09:31:27;;;;;;;3.05;1.20;;;20.00;69.10;21.70;99063.00;;;;5028906;28;20302;-76
2023/10/19 09:33:55;;;;;;;2.42;1.40;;;20.00;68.90;21.80;99057.00;;;;5033834;28;20624;-77
2023/10/19 09:36:26;;;;;;;6.55;1.70;;;20.10;69.00;21.80;99060.00;;;;5030119;28;20207;-77
2023/10/19 09:38:53;;;;;;;3.10;1.20;;;20.10;69.10;21.90;99062.00;;;;5034669;28;20200;-77
2023/10/19 09:41:28;;;;;;;4.35;1.58;;;20.20;69.10;21.90;99048.00;;;;5036075;28;20196;-78
2023/10/19 09:44:00;;;;;;;1.67;1.05;;;20.20;69.00;22.00;99051.00;;;;5032403;28;20195;-79
2023/10/19 09:46:32;;;;;;;3.00;1.42;;;20.30;69.00;22.00;99044.00;;;;5030758;28;20261;-78
2023/10/19 09:49:00;;;;;;;4.35;1.38;;;20.30;69.00;22.10;99042.00;;;;5033451;28;20657;-78
2023/10/19 09:51:28;;;;;;;4.65;1.20;;;20.40;69.10;22.20;99039.00;;;;5036810;28;20570;-79
2023/10/19 09:54:03;;;;;;;4.13;1.35;;;20.50;69.00;22.20;99020.00;;;;5035608;28;20207;-79
2023/10/19 09:56:39;;;;;;;3.28;1.25;;;20.50;69.00;22.30;99029.00;;;;5033550;28;20562;-79
2023/10/19 09:59:15;;;;;;;3.38;1.60;;;20.60;69.00;22.30;99026.00;;;;5033488;28;20206;-79
2023/10/19 10:02:12;;;;;;;2.63;1.25;;;20.60;68.80;22.30;99026.00;;;;5036900;28;20567;-79
2023/10/19 10:04:41;;;;;;;2.67;0.90;;;20.70;68.80;22.50;99038.00;;;;5028976;28;20196;-78
2023/10/19 10:07:09;;;;;;;3.10;1.25;;;20.80;69.20;22.50;99028.00;;;;5033035;28;20203;-76
2023/10/19 10:09:43;;;;;;;4.13;1.30;;;20.80;68.30;22.50;99026.00;;;;5031575;28;20642;-79
2023/10/19 10:12:23;;;;;;;2.00;1.00;;;20.90;68.20;22.50;99033.00;;;;5031305;28;20237;-79
2023/10/19 10:14:59;;;;;;;5.00;1.30;;;20.90;68.10;22.50;99039.00;;;;5033117;28;20208;-78
2023/10/19 10:17:27;;;;;;;3.97;1.45;;;20.90;68.00;22.60;99038.00;;;;5035574;28;20682;-78
2023/10/19 10:20:34;;;;;;;3.17;1.58;;;21.00;67.90;22.50;99047.00;;;;5036774;28;20204;-78
2023/10/19 10:23:26;;;;;;;3.88;1.33;;;21.00;68.00;22.60;99041.00;;;;5033514;28;20226;-78
2023/10/19 10:25:54;;;;;;;4.40;1.10;;;21.10;68.00;22.70;99037.00;;;;5031743;28;20231;-78
2023/10/19 10:28:24;;;;;;;3.80;1.23;;;21.10;67.80;22.70;99029.00;;;;5038383;28;20196;-78
2023/10/19 10:31:13;;;;;;;2.65;1.23;;;21.10;67.90;22.70;99021.00;;;;5038609;28;20197;-79
2023/10/19 10:33:44;;;;;;;1.83;0.75;;;21.10;68.10;22.80;99017.00;;;;5039441;28;20451;-78
2023/10/19 10:36:12;;;;;;;3.17;1.30;;;21.20;68.00;22.90;99026.00;;;;5035447;28;20224;-79
2023/10/19 10:38:40;;;;;;;3.83;1.10;;;21.20;67.90;22.90;99022.00;;;;5034861;28;20265;-78
2023/10/19 10:41:10;;;;;;;3.28;1.30;;;21.20;67.90;22.90;99018.00;;;;5035474;28;20205;-79
2023/10/19 10:43:54;;;;;;;5.00;0.80;;;21.30;67.80;22.80;99007.00;;;;5035645;28;20216;-78
2023/10/19 10:46:23;;;;;;;4.22;1.48;;;21.30;67.60;22.90;99011.00;;;;5037959;28;20196;-78
2023/10/19 10:48:51;;;;;;;2.55;0.93;;;21.30;67.50;23.00;99010.00;;;;5033319;28;20204;-79
2023/10/19 10:51:21;;;;;;;2.38;1.20;;;21.30;67.50;23.00;99005.00;;;;5035577;28;20206;-79
2023/10/19 10:53:49;;;;;;;3.22;1.33;;;21.30;67.50;23.00;99009.00;;;;5032549;28;20624;-79
2023/10/19 10:56:17;;;;;;;5.75;1.10;;;21.40;67.40;23.00;99007.00;;;;5042919;28;20550;-78
2023/10/19 10:58:44;;;;;;;1.98;1.20;;;21.40;67.40;23.00;99010.00;;;;5039496;28;20291;-79
2023/10/19 11:01:14;;;;;;;2.40;1.38;;;21.40;67.40;23.10;98994.00;;;;5039772;28;20565;-78
2023/10/19 11:03:42;;;;;;;3.30;1.23;;;21.40;67.40;23.10;99006.00;;;;5033132;28;20193;-78
2023/10/19 11:06:09;;;;;;;2.97;1.08;;;21.40;67.50;23.20;99000.00;;;;5033697;28;20286;-78
2023/10/19 11:08:38;;;;;;;5.63;1.55;;;21.50;67.70;23.30;99007.00;;;;5031201;28;20758;-79
2023/10/19 11:11:10;;;;;;;2.72;1.35;;;21.50;67.90;23.30;99000.00;;;;5034163;28;20200;-76